sensor_id;sensor_type;location;lat;lon;timestamp;pressure;altitude;pressure_sealevel;temperature;humidity
75006;BME280;63553;51.814;4.600;2024-01-07T00:00:13;101969.03;;;4.82;72.49
75006;BME280;63553;51.814;4.600;2024-01-07T00:02:38;101975.22;;;4.51;73.06
75006;BME280;63553;51.814;4.600;2024-01-07T00:05:04;101981.13;;;4.81;75.87
75006;BME280;63553;51.814;4.600;2024-01-07T00:07:29;101977.97;;;4.13;71.41
75006;BME280;63553;51.814;4.600;2024-01-07T00:09:55;101985.41;;;3.06;76.73
75006;BME280;63553;51.814;4.600;2024-01-07T00:12:20;101987.41;;;3.10;75.04
75006;BME280;63553;51.814;4.600;2024-01-07T00:14:45;101979.34;;;6.36;72.24
75006;BME280;63553;51.814;4.600;2024-01-07T00:17:10;101989.13;;;2.48;74.84
75006;BME280;63553;51.814;4.600;2024-01-07T00:19:36;101989.81;;;2.67;76.15
75006;BME280;63553;51.814;4.600;2024-01-07T00:22:02;101998.28;;;3.17;73.98
75006;BME280;63553;51.814;4.600;2024-01-07T00:24:28;101996.53;;;2.99;77.91
75006;BME280;63553;51.814;4.600;2024-01-07T00:26:54;102002.88;;;3.89;74.55
75006;BME280;63553;51.814;4.600;2024-01-07T00:29:20;102010.28;;;4.39;74.18
75006;BME280;63553;51.814;4.600;2024-01-07T00:31:45;102006.38;;;3.23;72.36
75006;BME280;63553;51.814;4.600;2024-01-07T00:34:10;102007.00;;;3.14;71.97
75006;BME280;63553;51.814;4.600;2024-01-07T00:36:36;102012.03;;;2.65;74.52
75006;BME280;63553;51.814;4.600;2024-01-07T00:39:01;102006.50;;;5.05;75.71
75006;BME280;63553;51.814;4.600;2024-01-07T00:41:26;102015.59;;;2.66;73.87
75006;BME280;63553;51.814;4.600;2024-01-07T00:43:52;102014.88;;;3.83;73.11
75006;BME280;63553;51.814;4.600;2024-01-07T00:46:17;102005.81;;;4.33;68.52
75006;BME280;63553;51.814;4.600;2024-01-07T00:48:43;102003.56;;;5.38;73.97
75006;BME280;63553;51.814;4.600;2024-01-07T00:51:08;102006.31;;;6.24;71.84
75006;BME280;63553;51.814;4.600;2024-01-07T00:53:33;102023.41;;;4.32;70.20
75006;BME280;63553;51.814;4.600;2024-01-07T00:55:59;102011.63;;;5.93;65.73
75006;BME280;63553;51.814;4.600;2024-01-07T00:58:24;102014.13;;;5.73;66.14
75006;BME280;63553;51.814;4.600;2024-01-07T01:00:50;102021.09;;;3.17;69.09
75006;BME280;63553;51.814;4.600;2024-01-07T01:03:16;102032.91;;;3.18;71.45
75006;BME280;63553;51.814;4.600;2024-01-07T01:05:41;102025.00;;;2.93;72.08
75006;BME280;63553;51.814;4.600;2024-01-07T01:08:07;102027.66;;;2.53;75.04
75006;BME280;63553;51.814;4.600;2024-01-07T01:10:32;102024.31;;;3.43;73.30
75006;BME280;63553;51.814;4.600;2024-01-07T01:12:57;102036.75;;;4.07;69.18
75006;BME280;63553;51.814;4.600;2024-01-07T01:15:22;102025.25;;;4.26;72.83
75006;BME280;63553;51.814;4.600;2024-01-07T01:17:48;102032.50;;;2.86;71.04
75006;BME280;63553;51.814;4.600;2024-01-07T01:20:13;102032.78;;;2.61;74.14
75006;BME280;63553;51.814;4.600;2024-01-07T01:22:39;102034.56;;;2.67;72.79
75006;BME280;63553;51.814;4.600;2024-01-07T01:25:05;102035.75;;;3.79;73.45
75006;BME280;63553;51.814;4.600;2024-01-07T01:27:30;102034.31;;;3.93;73.18
75006;BME280;63553;51.814;4.600;2024-01-07T01:29:55;102040.75;;;3.99;72.61
75006;BME280;63553;51.814;4.600;2024-01-07T01:32:21;102047.25;;;2.34;nan
75006;BME280;63553;51.814;4.600;2024-01-07T01:34:46;102045.88;;;2.83;75.40
75006;BME280;63553;51.814;4.600;2024-01-07T01:37:11;102044.69;;;4.03;78.31
75006;BME280;63553;51.814;4.600;2024-01-07T01:39:40;102049.06;;;3.87;70.19
75006;BME280;63553;51.814;4.600;2024-01-07T01:42:06;102046.75;;;3.79;74.68
75006;BME280;63553;51.814;4.600;2024-01-07T01:44:31;102058.13;;;2.52;75.44
75006;BME280;63553;51.814;4.600;2024-01-07T01:46:58;102063.81;;;2.04;77.59
75006;BME280;63553;51.814;4.600;2024-01-07T01:49:25;102062.03;;;2.67;78.47
75006;BME280;63553;51.814;4.600;2024-01-07T01:51:51;102068.00;;;2.76;78.04
75006;BME280;63553;51.814;4.600;2024-01-07T01:54:18;102076.13;;;2.59;78.17
75006;BME280;63553;51.814;4.600;2024-01-07T01:56:44;102076.97;;;1.72;78.96
75006;BME280;63553;51.814;4.600;2024-01-07T01:59:10;102070.91;;;1.82;80.19
75006;BME280;63553;51.814;4.600;2024-01-07T02:01:36;102064.63;;;1.93;79.55
75006;BME280;63553;51.814;4.600;2024-01-07T02:04:01;102074.25;;;3.23;82.48
75006;BME280;63553;51.814;4.600;2024-01-07T02:06:26;102080.81;;;3.78;74.69
75006;BME280;63553;51.814;4.600;2024-01-07T02:08:52;102075.16;;;3.57;77.71
75006;BME280;63553;51.814;4.600;2024-01-07T02:11:18;102075.13;;;3.68;80.44
75006;BME280;63553;51.814;4.600;2024-01-07T02:13:44;102080.06;;;3.38;75.17
75006;BME280;63553;51.814;4.600;2024-01-07T02:16:10;102084.34;;;3.62;73.06
75006;BME280;63553;51.814;4.600;2024-01-07T02:18:37;102088.06;;;3.28;75.84
75006;BME280;63553;51.814;4.600;2024-01-07T02:21:03;102071.56;;;6.71;80.30
75006;BME280;63553;51.814;4.600;2024-01-07T02:23:28;102085.09;;;3.86;70.44
75006;BME280;63553;51.814;4.600;2024-01-07T02:25:54;102089.81;;;3.46;79.49
75006;BME280;63553;51.814;4.600;2024-01-07T02:28:19;102086.88;;;4.59;78.63
75006;BME280;63553;51.814;4.600;2024-01-07T02:30:44;102079.16;;;3.09;76.55
75006;BME280;63553;51.814;4.600;2024-01-07T02:33:10;102096.97;;;2.14;79.28
75006;BME280;63553;51.814;4.600;2024-01-07T02:35:35;102102.22;;;2.04;79.64
75006;BME280;63553;51.814;4.600;2024-01-07T02:38:00;102100.66;;;4.42;79.97
75006;BME280;63553;51.814;4.600;2024-01-07T02:40:25;102103.22;;;2.44;78.46
75006;BME280;63553;51.814;4.600;2024-01-07T02:42:51;102105.13;;;2.78;75.93
75006;BME280;63553;51.814;4.600;2024-01-07T02:45:16;102103.09;;;2.39;77.06
75006;BME280;63553;51.814;4.600;2024-01-07T02:47:42;102104.88;;;2.22;80.69
75006;BME280;63553;51.814;4.600;2024-01-07T02:50:07;102107.03;;;1.90;79.95
75006;BME280;63553;51.814;4.600;2024-01-07T02:52:32;102115.00;;;2.21;78.93
75006;BME280;63553;51.814;4.600;2024-01-07T02:54:58;102102.75;;;3.33;80.67
75006;BME280;63553;51.814;4.600;2024-01-07T02:57:24;102109.03;;;2.13;78.70
75006;BME280;63553;51.814;4.600;2024-01-07T02:59:49;102095.41;;;2.06;79.04
75006;BME280;63553;51.814;4.600;2024-01-07T03:02:14;102096.72;;;1.62;81.21
75006;BME280;63553;51.814;4.600;2024-01-07T03:04:40;102104.34;;;2.02;79.24
75006;BME280;63553;51.814;4.600;2024-01-07T03:07:05;102101.06;;;1.82;80.05
75006;BME280;63553;51.814;4.600;2024-01-07T03:09:30;102104.41;;;2.25;80.24
75006;BME280;63553;51.814;4.600;2024-01-07T03:11:56;102094.19;;;3.58;81.66
75006;BME280;63553;51.814;4.600;2024-01-07T03:14:21;102101.28;;;2.33;77.65
75006;BME280;63553;51.814;4.600;2024-01-07T03:16:48;102110.13;;;2.35;77.02
75006;BME280;63553;51.814;4.600;2024-01-07T03:19:13;102114.69;;;2.00;77.75
75006;BME280;63553;51.814;4.600;2024-01-07T03:21:39;102115.13;;;1.85;79.07
75006;BME280;63553;51.814;4.600;2024-01-07T03:24:04;102122.69;;;1.60;80.08
75006;BME280;63553;51.814;4.600;2024-01-07T03:26:30;102112.41;;;2.61;80.17
75006;BME280;63553;51.814;4.600;2024-01-07T03:28:58;102125.56;;;1.95;78.46
75006;BME280;63553;51.814;4.600;2024-01-07T03:31:25;102145.16;;;1.50;79.56
75006;BME280;63553;51.814;4.600;2024-01-07T03:33:50;102113.84;;;1.88;78.90
75006;BME280;63553;51.814;4.600;2024-01-07T03:36:16;102128.75;;;1.62;78.79
75006;BME280;63553;51.814;4.600;2024-01-07T03:38:41;102128.69;;;1.68;80.50
75006;BME280;63553;51.814;4.600;2024-01-07T03:41:07;102140.19;;;1.59;80.37
75006;BME280;63553;51.814;4.600;2024-01-07T03:43:32;102154.03;;;1.46;80.23
75006;BME280;63553;51.814;4.600;2024-01-07T03:45:58;102145.88;;;2.17;81.30
75006;BME280;63553;51.814;4.600;2024-01-07T03:48:24;102147.50;;;2.71;81.11
75006;BME280;63553;51.814;4.600;2024-01-07T03:50:50;102153.66;;;1.90;80.46
75006;BME280;63553;51.814;4.600;2024-01-07T03:53:15;102153.44;;;1.92;81.67
75006;BME280;63553;51.814;4.600;2024-01-07T03:55:41;102150.34;;;2.41;81.54
75006;BME280;63553;51.814;4.600;2024-01-07T03:58:06;102158.03;;;2.09;80.66
75006;BME280;63553;51.814;4.600;2024-01-07T04:00:33;102161.53;;;3.44;79.84
75006;BME280;63553;51.814;4.600;2024-01-07T04:02:58;102176.47;;;1.73;79.86
75006;BME280;63553;51.814;4.600;2024-01-07T04:05:23;102177.63;;;1.83;81.45
75006;BME280;63553;51.814;4.600;2024-01-07T04:07:49;102171.53;;;2.99;80.17
75006;BME280;63553;51.814;4.600;2024-01-07T04:10:17;102168.88;;;2.80;81.15
75006;BME280;63553;51.814;4.600;2024-01-07T04:12:43;102171.53;;;2.75;81.95
75006;BME280;63553;51.814;4.600;2024-01-07T04:15:09;102176.84;;;2.59;83.00
75006;BME280;63553;51.814;4.600;2024-01-07T04:17:35;102186.22;;;1.87;82.26
75006;BME280;63553;51.814;4.600;2024-01-07T04:20:00;102187.09;;;1.15;83.73
75006;BME280;63553;51.814;4.600;2024-01-07T04:22:26;102191.19;;;1.78;83.98
75006;BME280;63553;51.814;4.600;2024-01-07T04:24:51;102195.63;;;1.43;83.12
75006;BME280;63553;51.814;4.600;2024-01-07T04:27:16;102204.75;;;1.19;84.33
75006;BME280;63553;51.814;4.600;2024-01-07T04:29:42;102194.06;;;3.35;88.45
75006;BME280;63553;51.814;4.600;2024-01-07T04:32:07;102201.09;;;1.43;83.33
75006;BME280;63553;51.814;4.600;2024-01-07T04:34:32;102201.41;;;1.71;84.30
75006;BME280;63553;51.814;4.600;2024-01-07T04:36:57;102198.06;;;1.51;83.00
75006;BME280;63553;51.814;4.600;2024-01-07T04:39:23;102199.47;;;1.90;82.12
75006;BME280;63553;51.814;4.600;2024-01-07T04:41:48;102196.28;;;1.75;81.24
75006;BME280;63553;51.814;4.600;2024-01-07T04:44:13;102199.28;;;2.44;82.23
75006;BME280;63553;51.814;4.600;2024-01-07T04:46:39;102197.59;;;1.54;82.68
75006;BME280;63553;51.814;4.600;2024-01-07T04:49:05;102202.38;;;1.58;82.95
75006;BME280;63553;51.814;4.600;2024-01-07T04:51:32;102211.56;;;1.82;80.39
75006;BME280;63553;51.814;4.600;2024-01-07T04:53:57;102211.72;;;1.87;81.68
75006;BME280;63553;51.814;4.600;2024-01-07T04:56:22;102211.81;;;1.81;83.12
75006;BME280;63553;51.814;4.600;2024-01-07T04:58:48;102215.94;;;1.53;81.46
75006;BME280;63553;51.814;4.600;2024-01-07T05:01:13;102211.06;;;1.74;83.34
75006;BME280;63553;51.814;4.600;2024-01-07T05:03:38;102220.28;;;1.61;83.67
75006;BME280;63553;51.814;4.600;2024-01-07T05:06:04;102208.16;;;3.27;82.00
75006;BME280;63553;51.814;4.600;2024-01-07T05:08:29;102219.63;;;1.95;81.64
75006;BME280;63553;51.814;4.600;2024-01-07T05:10:55;102226.84;;;1.42;82.14
75006;BME280;63553;51.814;4.600;2024-01-07T05:13:20;102228.97;;;1.22;83.22
75006;BME280;63553;51.814;4.600;2024-01-07T05:15:46;102226.00;;;2.07;82.85
75006;BME280;63553;51.814;4.600;2024-01-07T05:18:12;102242.81;;;1.27;83.43
75006;BME280;63553;51.814;4.600;2024-01-07T05:20:37;102248.00;;;1.10;83.63
75006;BME280;63553;51.814;4.600;2024-01-07T05:23:03;102258.06;;;2.25;84.26
75006;BME280;63553;51.814;4.600;2024-01-07T05:25:29;102253.38;;;1.23;83.36
75006;BME280;63553;51.814;4.600;2024-01-07T05:27:54;102252.47;;;1.29;82.57
75006;BME280;63553;51.814;4.600;2024-01-07T05:30:19;102262.56;;;1.10;83.81
75006;BME280;63553;51.814;4.600;2024-01-07T05:32:45;102254.53;;;1.88;81.57
75006;BME280;63553;51.814;4.600;2024-01-07T05:35:10;102265.31;;;2.19;82.42
75006;BME280;63553;51.814;4.600;2024-01-07T05:37:35;102257.31;;;2.00;80.57
75006;BME280;63553;51.814;4.600;2024-01-07T05:40:01;102265.53;;;1.09;83.99
75006;BME280;63553;51.814;4.600;2024-01-07T05:42:26;102268.16;;;1.58;83.30
75006;BME280;63553;51.814;4.600;2024-01-07T05:44:51;102276.19;;;1.17;83.51
75006;BME280;63553;51.814;4.600;2024-01-07T05:47:17;102271.09;;;1.21;85.31
75006;BME280;63553;51.814;4.600;2024-01-07T05:49:43;102273.94;;;1.32;85.71
75006;BME280;63553;51.814;4.600;2024-01-07T05:52:08;102278.41;;;1.27;86.04
75006;BME280;63553;51.814;4.600;2024-01-07T05:54:34;102282.66;;;2.02;82.61
75006;BME280;63553;51.814;4.600;2024-01-07T05:56:59;102276.78;;;1.01;85.36
75006;BME280;63553;51.814;4.600;2024-01-07T05:59:24;102278.53;;;1.75;84.97
75006;BME280;63553;51.814;4.600;2024-01-07T06:01:50;102279.44;;;1.07;84.59
75006;BME280;63553;51.814;4.600;2024-01-07T06:04:15;102292.22;;;1.38;84.56
75006;BME280;63553;51.814;4.600;2024-01-07T06:06:40;102298.72;;;1.19;83.53
75006;BME280;63553;51.814;4.600;2024-01-07T06:09:06;102296.47;;;0.85;85.79
75006;BME280;63553;51.814;4.600;2024-01-07T06:11:34;102301.44;;;1.44;83.89
75006;BME280;63553;51.814;4.600;2024-01-07T06:14:00;102308.06;;;1.36;85.24
75006;BME280;63553;51.814;4.600;2024-01-07T06:16:25;102313.03;;;2.90;85.10
75006;BME280;63553;51.814;4.600;2024-01-07T06:18:50;102304.03;;;2.71;80.31
75006;BME280;63553;51.814;4.600;2024-01-07T06:21:16;102322.38;;;2.11;80.48
75006;BME280;63553;51.814;4.600;2024-01-07T06:23:41;102316.38;;;1.66;82.04
75006;BME280;63553;51.814;4.600;2024-01-07T06:26:06;102325.44;;;1.24;81.14
75006;BME280;63553;51.814;4.600;2024-01-07T06:28:32;102331.13;;;1.22;83.23
75006;BME280;63553;51.814;4.600;2024-01-07T06:30:58;102328.13;;;1.30;83.19
75006;BME280;63553;51.814;4.600;2024-01-07T06:33:23;102339.47;;;1.77;81.41
75006;BME280;63553;51.814;4.600;2024-01-07T06:35:49;102330.09;;;1.84;82.98
75006;BME280;63553;51.814;4.600;2024-01-07T06:38:14;102335.56;;;1.23;81.75
75006;BME280;63553;51.814;4.600;2024-01-07T06:40:40;102351.94;;;2.27;82.81
75006;BME280;63553;51.814;4.600;2024-01-07T06:43:05;102354.19;;;1.57;80.77
75006;BME280;63553;51.814;4.600;2024-01-07T06:45:31;102358.19;;;1.12;82.72
75006;BME280;63553;51.814;4.600;2024-01-07T06:47:57;102356.53;;;2.15;84.49
75006;BME280;63553;51.814;4.600;2024-01-07T06:50:23;102362.75;;;1.67;82.03
75006;BME280;63553;51.814;4.600;2024-01-07T06:52:48;102371.09;;;1.05;81.12
75006;BME280;63553;51.814;4.600;2024-01-07T06:55:14;102370.88;;;1.99;83.40
75006;BME280;63553;51.814;4.600;2024-01-07T06:57:40;102363.22;;;1.40;80.95
75006;BME280;63553;51.814;4.600;2024-01-07T07:00:05;102369.84;;;2.30;79.54
75006;BME280;63553;51.814;4.600;2024-01-07T07:02:31;102373.66;;;1.74;79.95
75006;BME280;63553;51.814;4.600;2024-01-07T07:04:56;102382.53;;;1.27;80.71
75006;BME280;63553;51.814;4.600;2024-01-07T07:07:22;102378.84;;;1.39;80.45
75006;BME280;63553;51.814;4.600;2024-01-07T07:09:47;102379.00;;;1.69;79.46
75006;BME280;63553;51.814;4.600;2024-01-07T07:12:12;102378.34;;;1.67;80.08
75006;BME280;63553;51.814;4.600;2024-01-07T07:14:38;102388.34;;;1.12;81.05
75006;BME280;63553;51.814;4.600;2024-01-07T07:17:03;102380.94;;;1.62;83.02
75006;BME280;63553;51.814;4.600;2024-01-07T07:19:29;102387.44;;;1.67;79.23
75006;BME280;63553;51.814;4.600;2024-01-07T07:21:54;102394.66;;;1.37;79.65
75006;BME280;63553;51.814;4.600;2024-01-07T07:24:19;102411.13;;;1.31;80.58
75006;BME280;63553;51.814;4.600;2024-01-07T07:26:45;102407.13;;;1.33;81.14
75006;BME280;63553;51.814;4.600;2024-01-07T07:29:10;102421.66;;;1.58;82.50
75006;BME280;63553;51.814;4.600;2024-01-07T07:31:36;102419.66;;;1.47;81.16
75006;BME280;63553;51.814;4.600;2024-01-07T07:34:03;102419.63;;;1.54;80.06
75006;BME280;63553;51.814;4.600;2024-01-07T07:36:29;102427.28;;;1.45;81.17
75006;BME280;63553;51.814;4.600;2024-01-07T07:38:54;102427.19;;;2.19;81.20
75006;BME280;63553;51.814;4.600;2024-01-07T07:41:20;102438.00;;;1.72;80.02
75006;BME280;63553;51.814;4.600;2024-01-07T07:43:45;102432.63;;;1.83;80.27
75006;BME280;63553;51.814;4.600;2024-01-07T07:46:11;102440.69;;;1.78;81.94
75006;BME280;63553;51.814;4.600;2024-01-07T07:48:37;102444.09;;;1.74;79.80
75006;BME280;63553;51.814;4.600;2024-01-07T07:51:02;102445.50;;;1.83;78.79
75006;BME280;63553;51.814;4.600;2024-01-07T07:53:28;102451.03;;;1.76;78.58
75006;BME280;63553;51.814;4.600;2024-01-07T07:55:53;102456.16;;;2.70;76.30
75006;BME280;63553;51.814;4.600;2024-01-07T07:58:19;102464.59;;;2.50;74.88
75006;BME280;63553;51.814;4.600;2024-01-07T08:00:45;102468.13;;;1.96;77.16
75006;BME280;63553;51.814;4.600;2024-01-07T08:03:10;102468.22;;;1.65;76.78
75006;BME280;63553;51.814;4.600;2024-01-07T08:05:35;102468.06;;;1.29;80.15
75006;BME280;63553;51.814;4.600;2024-01-07T08:08:01;102451.66;;;2.21;79.38
75006;BME280;63553;51.814;4.600;2024-01-07T08:10:26;102467.88;;;2.41;81.13
75006;BME280;63553;51.814;4.600;2024-01-07T08:12:53;102468.91;;;1.29;79.70
75006;BME280;63553;51.814;4.600;2024-01-07T08:15:19;102483.22;;;1.62;79.69
75006;BME280;63553;51.814;4.600;2024-01-07T08:17:44;102485.16;;;1.55;79.44
75006;BME280;63553;51.814;4.600;2024-01-07T08:20:10;102482.91;;;1.46;80.80
75006;BME280;63553;51.814;4.600;2024-01-07T08:22:36;102483.59;;;2.34;80.87
75006;BME280;63553;51.814;4.600;2024-01-07T08:25:01;102488.47;;;1.89;77.74
75006;BME280;63553;51.814;4.600;2024-01-07T08:27:27;102493.50;;;1.42;78.51
75006;BME280;63553;51.814;4.600;2024-01-07T08:29:52;102492.38;;;2.60;79.31
75006;BME280;63553;51.814;4.600;2024-01-07T08:32:18;102490.50;;;2.18;82.63
75006;BME280;63553;51.814;4.600;2024-01-07T08:34:44;102485.28;;;5.04;97.47
75006;BME280;63553;51.814;4.600;2024-01-07T08:37:10;102483.16;;;10.92;100.00
75006;BME280;63553;51.814;4.600;2024-01-07T08:39:36;102487.50;;;13.06;100.00
75006;BME280;63553;51.814;4.600;2024-01-07T08:42:01;102496.28;;;13.42;100.00
75006;BME280;63553;51.814;4.600;2024-01-07T08:44:28;102488.97;;;14.89;100.00
75006;BME280;63553;51.814;4.600;2024-01-07T08:46:54;102491.91;;;15.83;100.00
75006;BME280;63553;51.814;4.600;2024-01-07T08:49:19;102494.38;;;16.51;100.00
75006;BME280;63553;51.814;4.600;2024-01-07T08:51:44;102518.81;;;3.92;100.00
75006;BME280;63553;51.814;4.600;2024-01-07T08:54:10;102529.94;;;2.42;100.00
75006;BME280;63553;51.814;4.600;2024-01-07T08:56:35;102530.81;;;2.60;100.00
75006;BME280;63553;51.814;4.600;2024-01-07T08:59:00;102531.63;;;2.24;92.52
75006;BME280;63553;51.814;4.600;2024-01-07T09:01:26;102534.50;;;2.30;88.49
75006;BME280;63553;51.814;4.600;2024-01-07T09:03:51;102537.00;;;2.13;85.98
75006;BME280;63553;51.814;4.600;2024-01-07T09:06:16;102543.75;;;2.35;87.58
75006;BME280;63553;51.814;4.600;2024-01-07T09:08:42;102543.91;;;3.13;90.79
75006;BME280;63553;51.814;4.600;2024-01-07T09:11:07;102543.44;;;2.25;83.80
75006;BME280;63553;51.814;4.600;2024-01-07T09:13:36;102552.16;;;1.91;83.84
75006;BME280;63553;51.814;4.600;2024-01-07T09:16:01;102553.28;;;1.83;85.77
75006;BME280;63553;51.814;4.600;2024-01-07T09:18:27;102564.47;;;1.82;86.79
75006;BME280;63553;51.814;4.600;2024-01-07T09:20:52;102570.97;;;1.56;85.38
75006;BME280;63553;51.814;4.600;2024-01-07T09:23:18;102560.75;;;1.69;84.39
75006;BME280;63553;51.814;4.600;2024-01-07T09:25:43;102566.09;;;1.89;87.56
75006;BME280;63553;51.814;4.600;2024-01-07T09:28:08;102571.53;;;1.64;85.58
75006;BME280;63553;51.814;4.600;2024-01-07T09:30:34;102577.13;;;2.32;89.00
75006;BME280;63553;51.814;4.600;2024-01-07T09:32:59;102577.16;;;2.50;88.60
75006;BME280;63553;51.814;4.600;2024-01-07T09:35:25;102590.31;;;1.99;84.79
75006;BME280;63553;51.814;4.600;2024-01-07T09:37:50;102578.16;;;2.56;88.53
75006;BME280;63553;51.814;4.600;2024-01-07T09:40:19;102589.00;;;2.01;81.29
75006;BME280;63553;51.814;4.600;2024-01-07T09:42:45;102591.59;;;2.46;82.86
75006;BME280;63553;51.814;4.600;2024-01-07T09:45:12;102589.78;;;2.33;80.17
75006;BME280;63553;51.814;4.600;2024-01-07T09:47:40;102592.69;;;2.38;81.19
75006;BME280;63553;51.814;4.600;2024-01-07T09:50:06;102597.81;;;2.10;79.34
75006;BME280;63553;51.814;4.600;2024-01-07T09:52:33;102595.97;;;2.47;79.09
75006;BME280;63553;51.814;4.600;2024-01-07T09:55:02;102606.13;;;1.97;79.21
75006;BME280;63553;51.814;4.600;2024-01-07T09:57:29;102604.69;;;2.19;79.66
75006;BME280;63553;51.814;4.600;2024-01-07T09:59:55;102615.38;;;2.02;79.05
75006;BME280;63553;51.814;4.600;2024-01-07T10:02:25;102616.03;;;1.98;77.92
75006;BME280;63553;51.814;4.600;2024-01-07T10:04:50;102617.38;;;2.63;78.29
75006;BME280;63553;51.814;4.600;2024-01-07T10:07:16;102614.63;;;2.63;77.30
75006;BME280;63553;51.814;4.600;2024-01-07T10:09:43;102616.72;;;5.55;92.88
75006;BME280;63553;51.814;4.600;2024-01-07T10:12:08;102621.75;;;7.90;88.61
75006;BME280;63553;51.814;4.600;2024-01-07T10:14:34;102611.41;;;9.80;81.23
75006;BME280;63553;51.814;4.600;2024-01-07T10:17:00;102614.75;;;11.03;76.04
75006;BME280;63553;51.814;4.600;2024-01-07T10:19:25;102621.38;;;11.91;73.20
75006;BME280;63553;51.814;4.600;2024-01-07T10:22:00;102622.38;;;12.44;69.37
75006;BME280;63553;51.814;4.600;2024-01-07T10:24:26;102620.34;;;12.89;68.89
75006;BME280;63553;51.814;4.600;2024-01-07T10:26:51;102622.69;;;13.53;67.35
75006;BME280;63553;51.814;4.600;2024-01-07T10:29:17;102618.28;;;13.89;67.11
75006;BME280;63553;51.814;4.600;2024-01-07T10:31:43;102628.81;;;14.16;65.60
75006;BME280;63553;51.814;4.600;2024-01-07T10:34:13;102626.44;;;14.60;63.98
75006;BME280;63553;51.814;4.600;2024-01-07T10:36:39;102635.09;;;14.77;62.94
75006;BME280;63553;51.814;4.600;2024-01-07T10:39:05;102632.53;;;14.94;63.50
75006;BME280;63553;51.814;4.600;2024-01-07T10:41:31;102632.78;;;15.25;62.11
75006;BME280;63553;51.814;4.600;2024-01-07T10:43:57;102624.09;;;15.54;61.52
75006;BME280;63553;51.814;4.600;2024-01-07T10:46:23;102633.75;;;15.75;61.83
75006;BME280;63553;51.814;4.600;2024-01-07T10:49:00;102630.09;;;15.88;59.26
75006;BME280;63553;51.814;4.600;2024-01-07T10:51:34;102636.38;;;16.07;58.27
75006;BME280;63553;51.814;4.600;2024-01-07T10:54:00;102635.53;;;16.07;56.58
75006;BME280;63553;51.814;4.600;2024-01-07T10:56:33;102628.06;;;16.02;56.31
75006;BME280;63553;51.814;4.600;2024-01-07T10:59:03;102635.22;;;16.08;55.77
75006;BME280;63553;51.814;4.600;2024-01-07T11:01:29;102640.09;;;16.17;55.37
75006;BME280;63553;51.814;4.600;2024-01-07T11:04:00;102638.06;;;16.31;55.10
75006;BME280;63553;51.814;4.600;2024-01-07T11:11:38;102642.91;;;16.75;53.72
75006;BME280;63553;51.814;4.600;2024-01-07T11:14:39;102645.00;;;16.91;52.41
75006;BME280;63553;51.814;4.600;2024-01-07T11:17:08;102635.91;;;16.94;52.88
75006;BME280;63553;51.814;4.600;2024-01-07T11:19:35;102637.88;;;17.16;52.70
75006;BME280;63553;51.814;4.600;2024-01-07T11:22:28;102634.25;;;17.24;52.10
75006;BME280;63553;51.814;4.600;2024-01-07T11:24:55;102637.47;;;17.40;51.87
75006;BME280;63553;51.814;4.600;2024-01-07T11:27:25;102629.38;;;17.47;51.18
75006;BME280;63553;51.814;4.600;2024-01-07T11:29:57;102624.81;;;17.59;51.12
75006;BME280;63553;51.814;4.600;2024-01-07T11:32:24;102636.44;;;17.66;50.27
75006;BME280;63553;51.814;4.600;2024-01-07T11:34:54;102623.34;;;17.70;50.54
75006;BME280;63553;51.814;4.600;2024-01-07T11:37:22;102627.84;;;17.80;50.12
75006;BME280;63553;51.814;4.600;2024-01-07T11:39:50;102631.16;;;17.91;49.64
75006;BME280;63553;51.814;4.600;2024-01-07T11:42:16;102623.25;;;18.01;49.70
75006;BME280;63553;51.814;4.600;2024-01-07T11:44:48;102625.72;;;18.11;49.46
75006;BME280;63553;51.814;4.600;2024-01-07T11:47:15;102632.84;;;18.17;48.83
75006;BME280;63553;51.814;4.600;2024-01-07T11:49:41;102629.91;;;18.22;48.88
75006;BME280;63553;51.814;4.600;2024-01-07T11:52:06;102630.22;;;18.38;47.70
75006;BME280;63553;51.814;4.600;2024-01-07T11:54:32;102624.44;;;18.43;46.95
75006;BME280;63553;51.814;4.600;2024-01-07T11:56:57;102630.75;;;18.49;47.40
75006;BME280;63553;51.814;4.600;2024-01-07T11:59:23;102639.69;;;18.51;46.96
75006;BME280;63553;51.814;4.600;2024-01-07T12:01:48;102647.81;;;18.61;46.94
75006;BME280;63553;51.814;4.600;2024-01-07T12:04:14;102632.72;;;18.57;46.25
75006;BME280;63553;51.814;4.600;2024-01-07T12:06:40;102649.31;;;18.50;45.48
75006;BME280;63553;51.814;4.600;2024-01-07T12:09:05;102647.66;;;18.49;45.88
75006;BME280;63553;51.814;4.600;2024-01-07T12:11:31;102650.16;;;18.59;47.01
75006;BME280;63553;51.814;4.600;2024-01-07T12:13:57;102645.47;;;18.71;45.75
75006;BME280;63553;51.814;4.600;2024-01-07T12:16:22;102646.13;;;18.77;44.52
75006;BME280;63553;51.814;4.600;2024-01-07T12:18:48;102645.31;;;18.76;43.97
75006;BME280;63553;51.814;4.600;2024-01-07T12:21:19;102655.09;;;18.70;43.93
75006;BME280;63553;51.814;4.600;2024-01-07T12:23:48;102647.81;;;18.69;44.42
75006;BME280;63553;51.814;4.600;2024-01-07T12:26:15;102653.91;;;18.80;43.87
75006;BME280;63553;51.814;4.600;2024-01-07T12:28:41;102652.91;;;18.93;45.00
75006;BME280;63553;51.814;4.600;2024-01-07T12:31:07;102663.66;;;19.08;44.14
75006;BME280;63553;51.814;4.600;2024-01-07T12:33:32;102655.19;;;19.08;42.95
75006;BME280;63553;51.814;4.600;2024-01-07T12:35:59;102654.03;;;19.01;43.26
75006;BME280;63553;51.814;4.600;2024-01-07T12:38:25;102656.72;;;18.97;42.54
75006;BME280;63553;51.814;4.600;2024-01-07T12:40:52;102661.34;;;18.93;43.14
75006;BME280;63553;51.814;4.600;2024-01-07T12:43:17;102664.34;;;18.97;43.87
75006;BME280;63553;51.814;4.600;2024-01-07T12:45:43;102669.13;;;18.96;43.46
75006;BME280;63553;51.814;4.600;2024-01-07T12:48:09;102657.53;;;18.89;43.23
75006;BME280;63553;51.814;4.600;2024-01-07T12:50:34;102671.16;;;18.87;43.20
75006;BME280;63553;51.814;4.600;2024-01-07T12:53:00;102672.00;;;18.70;42.65
75006;BME280;63553;51.814;4.600;2024-01-07T12:55:26;102659.94;;;18.53;43.47